Time;durP1;ratioP1;P1;durP2;ratioP2;P2;SDS_P1;SDS_P2;PMS_P1;PMS_P2;Temp;Humidity;BMP_temperature;BMP_pressure;BME280_temperature;BME280_humidity;BME280_pressure;Samples;Min_cycle;Max_cycle;Signal;HPM_P1;HPM_P2
2023/05/12 00:01:52;;;;;;;0.20;0.10;;;19.50;82.40;;;;;;5026437;28;20048;-84
2023/05/12 00:04:17;;;;;;;0.52;0.15;;;19.50;82.40;;;;;;5015386;28;20053;-83
2023/05/12 00:06:43;;;;;;;0.10;0.10;;;19.50;81.60;;;;;;5037940;28;20074;-84
2023/05/12 00:09:08;;;;;;;0.47;0.20;;;19.50;81.60;;;;;;5027579;28;20056;-84
2023/05/12 00:11:36;;;;;;;0.43;0.20;;;19.50;81.60;;;;;;5041780;28;20395;-84
2023/05/12 00:14:01;;;;;;;0.32;0.20;;;19.50;82.40;;;;;;5025486;28;20395;-84
2023/05/12 00:16:27;;;;;;;0.20;0.20;;;19.50;81.70;;;;;;5044783;28;20045;-84
2023/05/12 00:18:53;;;;;;;0.20;0.20;;;19.50;81.60;;;;;;5047775;28;20518;-84
2023/05/12 00:21:18;;;;;;;0.30;0.28;;;19.50;81.70;;;;;;5023982;28;20578;-83
2023/05/12 00:23:44;;;;;;;0.20;0.20;;;19.40;81.70;;;;;;5026795;28;20693;-84
2023/05/12 00:26:10;;;;;;;0.22;0.20;;;19.40;81.70;;;;;;5046205;28;20070;-84
2023/05/12 00:28:35;;;;;;;0.15;0.15;;;19.40;81.60;;;;;;5027513;28;20056;-84
2023/05/12 00:31:02;;;;;;;0.52;0.32;;;19.40;81.60;;;;;;5030279;28;20126;-84
2023/05/12 00:33:28;;;;;;;0.30;0.20;;;19.40;82.40;;;;;;5028138;28;20613;-84
2023/05/12 00:35:54;;;;;;;0.22;0.20;;;19.40;81.50;;;;;;5038276;28;20128;-84
2023/05/12 00:38:19;;;;;;;0.10;0.10;;;19.40;81.50;;;;;;5025065;28;20037;-84
2023/05/12 00:40:45;;;;;;;0.30;0.20;;;19.50;81.70;;;;;;5042973;28;20048;-84
2023/05/12 00:43:10;;;;;;;0.45;0.20;;;19.40;81.70;;;;;;5026454;28;20040;-84
2023/05/12 00:45:36;;;;;;;0.43;0.20;;;19.40;81.60;;;;;;5044869;28;20094;-84
2023/05/12 00:48:02;;;;;;;0.20;0.10;;;19.40;81.70;;;;;;5042877;28;20129;-84
2023/05/12 00:50:28;;;;;;;0.10;0.10;;;19.40;81.60;;;;;;5023212;28;20515;-84
2023/05/12 00:52:53;;;;;;;0.20;0.20;;;19.40;81.70;;;;;;5020886;28;20503;-84
2023/05/12 00:55:19;;;;;;;0.68;0.40;;;19.40;81.70;;;;;;5023208;28;20116;-84
2023/05/12 00:57:45;;;;;;;0.20;0.10;;;19.40;81.70;;;;;;5044541;28;20567;-84
2023/05/12 01:00:11;;;;;;;0.40;0.40;;;19.40;81.70;;;;;;5039111;28;20525;-84
2023/05/12 01:02:36;;;;;;;0.13;0.10;;;19.40;81.80;;;;;;5055690;28;20048;-84
2023/05/12 01:05:02;;;;;;;0.22;0.20;;;19.40;81.80;;;;;;5045792;28;20029;-84
2023/05/12 01:07:30;;;;;;;0.65;0.20;;;19.40;81.70;;;;;;5027305;28;20103;-84
2023/05/12 01:09:56;;;;;;;0.20;0.20;;;19.40;81.70;;;;;;5038862;28;20515;-84
2023/05/12 01:12:22;;;;;;;0.30;0.20;;;19.40;81.70;;;;;;5041460;28;20045;-83
2023/05/12 01:14:48;;;;;;;0.73;0.40;;;19.40;81.60;;;;;;5029235;28;20044;-84
2023/05/12 01:17:14;;;;;;;0.20;0.20;;;19.30;81.70;;;;;;5026050;28;20028;-84
2023/05/12 01:19:41;;;;;;;0.30;0.25;;;19.40;81.60;;;;;;5025915;28;20041;-84
2023/05/12 01:22:08;;;;;;;0.45;0.22;;;19.40;81.60;;;;;;5025208;28;20302;-84
2023/05/12 01:24:35;;;;;;;0.32;0.20;;;19.40;81.60;;;;;;5044803;28;20041;-84
2023/05/12 01:27:00;;;;;;;0.30;0.30;;;19.30;81.60;;;;;;5034861;28;20445;-84
2023/05/12 01:29:26;;;;;;;0.30;0.30;;;19.30;81.70;;;;;;5024613;28;20048;-82
2023/05/12 01:31:51;;;;;;;0.45;0.30;;;19.30;81.70;;;;;;5026786;28;20037;-84
2023/05/12 01:34:17;;;;;;;0.15;0.13;;;19.30;81.60;;;;;;5010733;28;20033;-84
2023/05/12 01:36:43;;;;;;;0.30;0.20;;;19.30;82.40;;;;;;5007443;28;20536;-84
2023/05/12 01:39:09;;;;;;;0.65;0.20;;;19.30;81.70;;;;;;5041140;28;20043;-84
2023/05/12 01:41:34;;;;;;;0.43;0.10;;;19.30;81.60;;;;;;5034524;28;20045;-84
2023/05/12 01:44:00;;;;;;;0.35;0.30;;;19.30;81.70;;;;;;5043206;28;20040;-84
2023/05/12 01:46:26;;;;;;;0.10;0.10;;;19.30;81.70;;;;;;5042797;28;20091;-84
2023/05/12 01:48:51;;;;;;;0.30;0.30;;;19.30;81.70;;;;;;5027905;28;20202;-84
2023/05/12 01:51:17;;;;;;;0.30;0.28;;;19.30;81.60;;;;;;5044785;28;20037;-84
2023/05/12 01:53:42;;;;;;;0.52;0.20;;;19.30;81.60;;;;;;5043494;28;20116;-84
2023/05/12 01:56:08;;;;;;;0.35;0.32;;;19.30;81.70;;;;;;5041462;28;20030;-84
2023/05/12 01:58:34;;;;;;;0.35;0.20;;;19.30;81.60;;;;;;5032419;28;20400;-84
2023/05/12 02:00:59;;;;;;;0.45;0.32;;;19.30;81.70;;;;;;5034487;28;20044;-84
2023/05/12 02:03:25;;;;;;;0.30;0.30;;;19.30;81.60;;;;;;5027093;28;20057;-83
2023/05/12 02:05:50;;;;;;;1.02;0.45;;;19.30;81.60;;;;;;5027013;28;20044;-84
2023/05/12 02:08:16;;;;;;;0.28;0.20;;;19.30;81.70;;;;;;5028782;28;20068;-84
2023/05/12 02:10:42;;;;;;;0.20;0.20;;;19.30;81.60;;;;;;5010873;28;20087;-84
2023/05/12 02:13:07;;;;;;;0.55;0.40;;;19.30;81.60;;;;;;5027376;28;20033;-84
2023/05/12 02:15:33;;;;;;;0.47;0.30;;;19.30;81.60;;;;;;5024992;28;20048;-83
2023/05/12 02:17:58;;;;;;;0.43;0.20;;;19.30;81.70;;;;;;5044113;28;20147;-84
2023/05/12 02:20:24;;;;;;;0.20;0.20;;;19.30;81.60;;;;;;5049050;28;20059;-82
2023/05/12 02:22:49;;;;;;;0.10;0.10;;;19.30;81.60;;;;;;5041659;28;20025;-83
2023/05/12 02:25:15;;;;;;;0.20;0.20;;;19.30;81.60;;;;;;5044246;28;20461;-84
2023/05/12 02:27:41;;;;;;;0.17;0.13;;;19.20;81.60;;;;;;5047241;28;20029;-84
2023/05/12 02:30:07;;;;;;;0.30;0.13;;;19.30;81.60;;;;;;5043692;28;20049;-84
2023/05/12 02:32:32;;;;;;;0.40;0.30;;;19.20;81.50;;;;;;5026853;28;20575;-83
2023/05/12 02:34:58;;;;;;;0.20;0.17;;;19.20;81.50;;;;;;5043236;28;20033;-84
2023/05/12 02:37:24;;;;;;;0.40;0.20;;;19.30;82.40;;;;;;5025199;28;20529;-84
2023/05/12 02:39:49;;;;;;;0.60;0.30;;;19.20;81.60;;;;;;5025415;28;20048;-84
2023/05/12 02:42:15;;;;;;;0.22;0.20;;;19.30;81.60;;;;;;5038504;28;20415;-84
2023/05/12 02:44:40;;;;;;;0.57;0.35;;;19.30;81.50;;;;;;5041916;28;20766;-84
2023/05/12 02:47:06;;;;;;;0.30;0.20;;;19.20;81.50;;;;;;5043349;28;20521;-83
2023/05/12 02:49:31;;;;;;;0.35;0.25;;;19.20;81.50;;;;;;5020722;28;20576;-83
2023/05/12 02:51:57;;;;;;;0.20;0.13;;;19.20;81.50;;;;;;5014253;28;20040;-84
2023/05/12 02:54:23;;;;;;;0.25;0.25;;;19.20;81.50;;;;;;5047896;28;20041;-84
2023/05/12 02:56:48;;;;;;;0.40;0.30;;;19.20;81.50;;;;;;5041304;28;20518;-84
2023/05/12 02:59:14;;;;;;;0.30;0.30;;;19.20;81.50;;;;;;5046962;28;20120;-84
2023/05/12 03:01:39;;;;;;;0.20;0.20;;;19.20;81.50;;;;;;5028734;28;20038;-84
2023/05/12 03:04:05;;;;;;;0.30;0.30;;;19.20;81.40;;;;;;5049123;28;20082;-83
2023/05/12 03:06:30;;;;;;;0.20;0.15;;;19.20;81.50;;;;;;5045071;28;20128;-84
2023/05/12 03:08:56;;;;;;;0.35;0.32;;;19.20;81.50;;;;;;5041136;28;20062;-84
2023/05/12 03:11:21;;;;;;;0.30;0.20;;;19.20;81.50;;;;;;5046383;28;20110;-84
2023/05/12 03:13:47;;;;;;;0.20;0.20;;;19.20;81.50;;;;;;5013149;28;20046;-84
2023/05/12 03:16:13;;;;;;;1.35;0.20;;;19.20;81.50;;;;;;5027064;28;20041;-84
2023/05/12 03:18:38;;;;;;;0.40;0.25;;;19.20;81.50;;;;;;5048943;28;20057;-84
2023/05/12 03:21:04;;;;;;;0.40;0.22;;;19.20;81.50;;;;;;5030022;28;20128;-84
2023/05/12 03:23:30;;;;;;;0.60;0.30;;;19.20;81.50;;;;;;5030087;28;20033;-83
2023/05/12 03:25:55;;;;;;;0.55;0.30;;;19.20;81.50;;;;;;5028009;28;20040;-84
2023/05/12 03:28:23;;;;;;;0.20;0.20;;;19.20;81.50;;;;;;5030977;28;20896;-84
2023/05/12 03:30:48;;;;;;;0.32;0.20;;;19.20;81.60;;;;;;5045513;28;20045;-84
2023/05/12 03:33:14;;;;;;;0.22;0.22;;;19.20;81.50;;;;;;5026595;28;20048;-84
2023/05/12 03:35:40;;;;;;;0.10;0.10;;;19.20;81.50;;;;;;5043440;28;20037;-84
2023/05/12 03:38:05;;;;;;;0.63;0.25;;;19.20;81.50;;;;;;5043342;28;20044;-84
2023/05/12 03:40:31;;;;;;;0.30;0.30;;;19.20;81.50;;;;;;5041956;28;20601;-84
2023/05/12 03:42:57;;;;;;;0.65;0.30;;;19.20;81.50;;;;;;5046989;28;20548;-84
2023/05/12 03:45:22;;;;;;;0.30;0.30;;;19.10;81.50;;;;;;5029006;28;20110;-84
2023/05/12 03:47:48;;;;;;;0.30;0.30;;;19.20;81.50;;;;;;5046615;28;20041;-84
2023/05/12 03:50:13;;;;;;;0.35;0.35;;;19.10;81.50;;;;;;5043220;28;20045;-84
2023/05/12 03:52:40;;;;;;;0.20;0.20;;;19.10;81.50;;;;;;5044263;28;20469;-84
2023/05/12 03:55:06;;;;;;;0.28;0.28;;;19.10;81.60;;;;;;5013996;28;20040;-84
2023/05/12 03:57:33;;;;;;;0.55;0.43;;;19.10;81.60;;;;;;5046950;28;20029;-84
2023/05/12 03:59:58;;;;;;;0.70;0.30;;;19.10;81.50;;;;;;5030676;28;20048;-84
2023/05/12 04:02:25;;;;;;;0.55;0.40;;;19.10;81.60;;;;;;5043333;28;20037;-84
2023/05/12 04:04:50;;;;;;;0.30;0.30;;;19.10;81.60;;;;;;5042017;28;20506;-84
2023/05/12 04:07:16;;;;;;;0.30;0.30;;;19.10;81.60;;;;;;5025323;28;20041;-83
2023/05/12 04:09:42;;;;;;;0.20;0.20;;;19.10;81.70;;;;;;5058795;28;20037;-84
2023/05/12 04:12:08;;;;;;;0.40;0.30;;;19.10;81.60;;;;;;5041163;28;20045;-84
2023/05/12 04:14:34;;;;;;;0.32;0.20;;;19.10;81.70;;;;;;5044082;28;20044;-84
2023/05/12 04:17:00;;;;;;;0.20;0.20;;;19.10;81.70;;;;;;5025703;28;20565;-84
2023/05/12 04:19:25;;;;;;;0.43;0.32;;;19.10;81.70;;;;;;5039581;28;20522;-84
2023/05/12 04:21:51;;;;;;;0.50;0.30;;;19.10;81.60;;;;;;5047020;28;20056;-84
2023/05/12 04:24:17;;;;;;;0.20;0.20;;;19.10;81.60;;;;;;5045913;28;20108;-84
2023/05/12 04:26:42;;;;;;;0.30;0.30;;;19.10;81.60;;;;;;5040022;28;20588;-83
2023/05/12 04:29:08;;;;;;;0.30;0.30;;;19.10;81.50;;;;;;5012106;28;20041;-84
2023/05/12 04:31:34;;;;;;;0.20;0.20;;;19.10;81.70;;;;;;5024376;28;20092;-83
2023/05/12 04:34:00;;;;;;;0.50;0.30;;;19.10;81.70;;;;;;5047528;28;20037;-84
2023/05/12 04:36:25;;;;;;;0.10;0.10;;;19.10;81.80;;;;;;5031379;28;20548;-84
2023/05/12 04:38:51;;;;;;;0.60;0.30;;;19.10;81.60;;;;;;5039480;28;21349;-84
2023/05/12 04:41:16;;;;;;;5.00;0.30;;;19.10;81.70;;;;;;5042575;28;20049;-84
2023/05/12 04:43:42;;;;;;;0.20;0.20;;;19.00;81.60;;;;;;5041870;28;20124;-83
2023/05/12 04:46:07;;;;;;;0.20;0.20;;;19.10;81.70;;;;;;5027500;28;20540;-84
2023/05/12 04:48:33;;;;;;;0.35;0.30;;;19.10;81.60;;;;;;5029141;28;20182;-82
2023/05/12 04:50:59;;;;;;;0.28;0.20;;;19.10;81.70;;;;;;5030762;28;20048;-83
2023/05/12 04:53:25;;;;;;;0.38;0.17;;;19.10;81.70;;;;;;5030700;28;20067;-83
2023/05/12 04:55:51;;;;;;;0.38;0.38;;;19.10;81.60;;;;;;5014355;28;20179;-83
2023/05/12 04:58:17;;;;;;;0.10;0.10;;;19.10;81.70;;;;;;5043642;28;20573;-83
2023/05/12 05:00:42;;;;;;;0.25;0.10;;;19.00;81.70;;;;;;5043277;28;20079;-83
2023/05/12 05:03:08;;;;;;;0.10;0.10;;;19.10;81.80;;;;;;5043498;28;20041;-83
2023/05/12 05:05:33;;;;;;;0.20;0.20;;;19.00;81.60;;;;;;5038742;28;20060;-82
2023/05/12 05:08:00;;;;;;;0.20;0.20;;;19.00;81.60;;;;;;5044409;28;20049;-83
2023/05/12 05:10:26;;;;;;;0.20;0.20;;;19.10;81.70;;;;;;5043293;28;20275;-80
2023/05/12 05:12:51;;;;;;;0.22;0.22;;;19.10;81.70;;;;;;5044046;28;20120;-79
2023/05/12 05:15:17;;;;;;;0.20;0.20;;;19.10;81.60;;;;;;5043868;28;20048;-79
2023/05/12 05:17:47;;;;;;;0.20;0.20;;;19.10;81.70;;;;;;5040491;28;20045;-79
2023/05/12 05:20:13;;;;;;;0.35;0.35;;;19.10;81.60;;;;;;5040721;28;20091;-79
2023/05/12 05:22:39;;;;;;;0.20;0.20;;;19.10;81.70;;;;;;5042427;28;20630;-79
2023/05/12 05:25:05;;;;;;;0.20;0.20;;;19.00;81.70;;;;;;5045229;28;20109;-79
2023/05/12 05:27:31;;;;;;;0.20;0.20;;;19.00;81.70;;;;;;5044663;28;20371;-79
2023/05/12 05:29:56;;;;;;;0.30;0.30;;;19.00;81.70;;;;;;5037858;28;20056;-79
2023/05/12 05:32:23;;;;;;;0.17;0.10;;;19.10;81.70;;;;;;5045059;28;20646;-79
2023/05/12 05:34:48;;;;;;;0.20;0.20;;;19.00;81.60;;;;;;5043511;28;20052;-79
2023/05/12 05:37:14;;;;;;;0.25;0.25;;;19.00;81.70;;;;;;5043737;28;20410;-79
2023/05/12 05:39:40;;;;;;;0.20;0.20;;;19.00;81.70;;;;;;5041978;28;20037;-79
2023/05/12 05:42:05;;;;;;;0.40;0.20;;;19.00;81.70;;;;;;5043269;28;20040;-79
2023/05/12 05:44:31;;;;;;;0.10;0.10;;;19.00;81.70;;;;;;5040973;28;20140;-80
2023/05/12 05:46:57;;;;;;;0.20;0.20;;;19.00;81.70;;;;;;5040192;28;20053;-80
2023/05/12 05:49:22;;;;;;;0.30;0.20;;;19.00;81.70;;;;;;5043753;28;20060;-80
2023/05/12 05:51:48;;;;;;;0.10;0.10;;;19.00;81.80;;;;;;5044964;28;20504;-79
2023/05/12 05:54:14;;;;;;;0.10;0.10;;;19.00;81.70;;;;;;5043064;28;20538;-79
2023/05/12 05:56:39;;;;;;;0.20;0.20;;;19.00;81.80;;;;;;5039770;28;20045;-79
2023/05/12 05:59:05;;;;;;;0.20;0.20;;;19.10;81.80;;;;;;5035526;28;20091;-80
2023/05/12 06:01:31;;;;;;;0.43;0.28;;;19.00;81.80;;;;;;5024960;28;20136;-79
2023/05/12 06:03:56;;;;;;;0.20;0.20;;;19.00;81.70;;;;;;5041499;28;20133;-79
2023/05/12 06:06:22;;;;;;;0.50;0.50;;;19.00;81.70;;;;;;5039782;28;20815;-80
2023/05/12 06:08:47;;;;;;;0.10;0.10;;;19.10;81.90;;;;;;5042524;28;20045;-79
2023/05/12 06:11:13;;;;;;;0.20;0.15;;;19.00;81.70;;;;;;5042084;28;20037;-79
2023/05/12 06:13:38;;;;;;;0.30;0.25;;;19.10;81.80;;;;;;5044144;28;20037;-79
2023/05/12 06:16:04;;;;;;;0.10;0.10;;;19.10;81.70;;;;;;5045664;28;20617;-79
2023/05/12 06:18:32;;;;;;;0.28;0.28;;;19.10;81.80;;;;;;5042925;28;20029;-79
2023/05/12 06:20:58;;;;;;;0.10;0.10;;;19.00;81.70;;;;;;5044619;28;20088;-79
2023/05/12 06:23:24;;;;;;;0.20;0.17;;;19.00;81.70;;;;;;5042758;28;20067;-80
2023/05/12 06:25:49;;;;;;;0.20;0.20;;;19.10;81.80;;;;;;5040753;28;20802;-79
2023/05/12 06:28:15;;;;;;;0.10;0.10;;;19.10;81.80;;;;;;5045581;28;20418;-79
2023/05/12 06:30:40;;;;;;;0.25;0.25;;;19.00;81.80;;;;;;5046411;28;20078;-80
2023/05/12 06:33:06;;;;;;;0.20;0.20;;;19.10;81.90;;;;;;5045643;28;20414;-80
2023/05/12 06:35:32;;;;;;;0.13;0.13;;;19.10;81.80;;;;;;5045423;28;20033;-79
2023/05/12 06:37:57;;;;;;;0.20;0.20;;;19.10;81.80;;;;;;5045291;28;20674;-79
2023/05/12 06:40:23;;;;;;;0.28;0.20;;;19.10;81.70;;;;;;5047722;28;20510;-80
2023/05/12 06:42:49;;;;;;;0.20;0.17;;;19.10;81.80;;;;;;5048652;28;20049;-80
2023/05/12 06:45:14;;;;;;;0.30;0.30;;;19.00;81.70;;;;;;5046448;28;20526;-79
2023/05/12 06:47:40;;;;;;;0.10;0.10;;;19.10;81.70;;;;;;5047149;28;20036;-79
2023/05/12 06:50:07;;;;;;;0.20;0.20;;;19.10;81.70;;;;;;5042392;28;20043;-79
2023/05/12 06:52:33;;;;;;;0.20;0.20;;;19.10;81.70;;;;;;5044191;28;20034;-80
2023/05/12 06:54:58;;;;;;;0.28;0.28;;;19.10;81.70;;;;;;5045800;28;20426;-80
2023/05/12 06:57:24;;;;;;;0.10;0.10;;;19.10;81.70;;;;;;5048292;28;20031;-79
2023/05/12 06:59:50;;;;;;;0.10;0.10;;;19.00;81.70;;;;;;5030799;28;20453;-80
2023/05/12 07:02:15;;;;;;;0.32;0.32;;;19.10;81.70;;;;;;5045938;28;20029;-79
2023/05/12 07:04:41;;;;;;;0.20;0.20;;;19.10;81.60;;;;;;5044483;28;20109;-79
2023/05/12 07:07:07;;;;;;;0.20;0.20;;;19.10;81.70;;;;;;5033932;28;20063;-79
2023/05/12 07:09:32;;;;;;;0.15;0.15;;;19.10;81.60;;;;;;5043975;28;20041;-79
2023/05/12 07:11:58;;;;;;;0.30;0.30;;;19.10;81.60;;;;;;5046281;28;20047;-79
2023/05/12 07:14:24;;;;;;;0.25;0.22;;;19.10;81.70;;;;;;5046815;28;20116;-79
2023/05/12 07:16:50;;;;;;;0.20;0.20;;;19.10;81.70;;;;;;5045632;28;20528;-80
2023/05/12 07:19:16;;;;;;;0.30;0.30;;;19.10;81.70;;;;;;5043756;28;20124;-80
2023/05/12 07:21:42;;;;;;;0.30;0.30;;;19.10;81.70;;;;;;5049117;28;20124;-79
2023/05/12 07:24:07;;;;;;;0.30;0.30;;;19.10;81.70;;;;;;5027820;28;20083;-80
2023/05/12 07:26:33;;;;;;;0.30;0.30;;;19.10;81.80;;;;;;5043059;28;20514;-80
2023/05/12 07:28:59;;;;;;;0.20;0.20;;;19.10;81.70;;;;;;5044325;28;20056;-79
2023/05/12 07:31:25;;;;;;;0.20;0.20;;;19.10;81.70;;;;;;5027866;28;20169;-79
2023/05/12 07:33:50;;;;;;;0.10;0.10;;;19.10;81.70;;;;;;5044381;28;20487;-79
2023/05/12 07:36:16;;;;;;;0.30;0.30;;;19.10;81.70;;;;;;5043654;28;20052;-80
2023/05/12 07:38:41;;;;;;;0.20;0.20;;;19.20;81.70;;;;;;5042962;28;20075;-79
2023/05/12 07:41:07;;;;;;;0.20;0.20;;;19.20;81.60;;;;;;5043647;28;20053;-79
2023/05/12 07:43:32;;;;;;;0.20;0.20;;;19.20;81.60;;;;;;5037077;28;20071;-80
2023/05/12 07:45:59;;;;;;;0.30;0.30;;;19.20;81.60;;;;;;5048807;28;20041;-79
2023/05/12 07:48:25;;;;;;;0.30;0.30;;;19.20;81.50;;;;;;5044105;28;20095;-79
2023/05/12 07:50:51;;;;;;;0.45;0.45;;;19.20;81.50;;;;;;5042671;28;20037;-79
2023/05/12 07:53:16;;;;;;;0.20;0.20;;;19.20;81.50;;;;;;5044923;28;20567;-80
2023/05/12 07:55:42;;;;;;;0.20;0.20;;;19.20;81.60;;;;;;5046629;28;20406;-79
2023/05/12 07:58:08;;;;;;;0.20;0.20;;;19.20;81.60;;;;;;5042849;28;20075;-79
2023/05/12 08:00:34;;;;;;;0.20;0.20;;;19.20;81.50;;;;;;5024838;28;20050;-79
2023/05/12 08:02:59;;;;;;;2.15;0.30;;;19.20;81.50;;;;;;5027168;28;20045;-79
2023/05/12 08:05:25;;;;;;;0.63;0.63;;;19.20;81.50;;;;;;5043278;28;20037;-80
2023/05/12 08:07:51;;;;;;;0.28;0.20;;;19.20;81.50;;;;;;5044643;28;20533;-79
2023/05/12 08:10:18;;;;;;;0.30;0.30;;;19.20;81.50;;;;;;5045035;28;20456;-79
2023/05/12 08:12:43;;;;;;;0.20;0.20;;;19.20;81.50;;;;;;5058327;28;20041;-79
2023/05/12 08:15:09;;;;;;;0.25;0.20;;;19.20;81.50;;;;;;5044795;28;20046;-78
2023/05/12 08:17:35;;;;;;;0.20;0.20;;;19.30;81.40;;;;;;5044986;28;20067;-80
2023/05/12 08:20:03;;;;;;;0.30;0.30;;;19.30;81.30;;;;;;4688641;28;10000508;-80
2023/05/12 08:22:29;;;;;;;0.70;0.40;;;19.30;81.30;;;;;;5040260;28;20037;-80
2023/05/12 08:24:54;;;;;;;0.32;0.30;;;19.40;81.40;;;;;;5025545;28;20048;-79
2023/05/12 08:27:20;;;;;;;0.82;0.35;;;19.40;81.30;;;;;;5040041;28;20136;-79
2023/05/12 08:29:45;;;;;;;1.17;0.43;;;19.50;81.90;;;;;;5037031;28;20466;-79
2023/05/12 08:32:11;;;;;;;0.60;0.60;;;19.50;82.00;;;;;;5040536;28;20045;-79
2023/05/12 08:34:36;;;;;;;0.32;0.32;;;19.50;82.50;;;;;;5041036;28;20128;-79
2023/05/12 08:37:02;;;;;;;0.50;0.35;;;19.60;82.00;;;;;;5025054;28;20052;-79
2023/05/12 08:39:32;;;;;;;0.40;0.38;;;19.60;82.00;;;;;;5041246;28;20083;-79
2023/05/12 08:42:08;;;;;;;0.40;0.40;;;19.60;81.90;;;;;;5038567;28;20055;-79
2023/05/12 08:44:34;;;;;;;0.85;0.28;;;19.60;81.90;;;;;;5039082;28;20072;-79
2023/05/12 08:47:00;;;;;;;0.45;0.40;;;19.60;81.80;;;;;;5042175;28;20076;-80
2023/05/12 08:49:25;;;;;;;0.20;0.20;;;19.60;82.40;;;;;;5043253;28;20461;-79
2023/05/12 08:51:52;;;;;;;0.65;0.30;;;19.60;81.70;;;;;;5010881;28;20036;-80
2023/05/12 08:54:18;;;;;;;0.80;0.60;;;19.60;81.70;;;;;;5044041;28;20045;-80
2023/05/12 08:56:43;;;;;;;0.30;0.30;;;19.60;82.70;;;;;;5043046;28;20044;-79
2023/05/12 08:59:09;;;;;;;0.30;0.30;;;19.60;81.90;;;;;;5040965;28;20033;-79
2023/05/12 09:01:35;;;;;;;0.30;0.30;;;19.60;81.90;;;;;;5044875;28;20052;-80
2023/05/12 09:04:01;;;;;;;1.08;0.30;;;19.60;81.90;;;;;;5048111;28;20498;-80
2023/05/12 09:06:27;;;;;;;0.22;0.22;;;19.70;82.60;;;;;;5044414;28;20041;-80
2023/05/12 09:08:53;;;;;;;0.82;0.40;;;19.70;81.60;;;;;;5025631;28;20040;-80
2023/05/12 09:11:18;;;;;;;0.45;0.30;;;19.70;81.40;;;;;;5040771;28;20056;-80
2023/05/12 09:13:52;;;;;;;0.45;0.30;;;19.70;81.30;;;;;;5045490;28;20052;-80
2023/05/12 09:16:22;;;;;;;0.50;0.38;;;19.70;81.30;;;;;;5031743;28;20049;-80
2023/05/12 09:18:50;;;;;;;0.30;0.30;;;19.70;81.10;;;;;;5040916;28;20057;-80
2023/05/12 09:21:16;;;;;;;0.57;0.30;;;19.80;81.20;;;;;;5043065;28;20099;-79
2023/05/12 09:23:52;;;;;;;0.20;0.20;;;19.80;81.00;;;;;;5044499;28;20040;-79
2023/05/12 09:26:18;;;;;;;0.50;0.40;;;19.70;81.10;;;;;;5044311;28;20210;-80
2023/05/12 09:28:44;;;;;;;0.32;0.22;;;19.80;81.30;;;;;;5042730;28;20041;-79
2023/05/12 09:31:19;;;;;;;0.28;0.20;;;19.80;81.10;;;;;;5044685;28;20099;-79
2023/05/12 09:33:44;;;;;;;0.47;0.30;;;19.80;80.90;;;;;;5045569;28;20048;-80
2023/05/12 09:36:20;;;;;;;0.30;0.30;;;19.90;80.90;;;;;;5038511;28;20040;-79
2023/05/12 09:38:46;;;;;;;0.57;0.35;;;19.90;80.80;;;;;;5039325;28;20320;-80
2023/05/12 09:41:11;;;;;;;0.38;0.38;;;19.90;80.70;;;;;;5045099;28;20073;-79
2023/05/12 09:43:43;;;;;;;0.30;0.30;;;19.90;81.00;;;;;;5045497;28;20068;-79
2023/05/12 09:46:09;;;;;;;1.23;0.30;;;19.90;80.50;;;;;;5012924;28;20399;-79
2023/05/12 09:48:34;;;;;;;2.50;0.85;;;19.90;80.50;;;;;;5043794;28;20098;-79
2023/05/12 09:51:00;;;;;;;0.30;0.20;;;19.90;80.50;;;;;;5043827;28;20399;-79
2023/05/12 09:53:26;;;;;;;0.43;0.22;;;19.90;80.50;;;;;;5028135;28;20514;-80
2023/05/12 09:55:51;;;;;;;1.00;0.20;;;19.90;80.40;;;;;;5043957;28;20041;-79
2023/05/12 09:58:18;;;;;;;0.40;0.20;;;20.00;80.50;;;;;;5041145;28;20045;-79
2023/05/12 10:00:44;;;;;;;0.40;0.20;;;19.90;80.50;;;;;;5029218;28;20057;-79
2023/05/12 10:03:12;;;;;;;0.28;0.28;;;20.00;80.50;;;;;;5043464;28;20068;-79
2023/05/12 10:05:44;;;;;;;0.30;0.30;;;20.00;80.50;;;;;;5028700;28;20502;-79
2023/05/12 10:08:09;;;;;;;0.30;0.25;;;20.00;80.40;;;;;;5045000;28;20056;-79
2023/05/12 10:10:35;;;;;;;0.57;0.40;;;20.00;80.40;;;;;;5030078;28;20459;-79
2023/05/12 10:13:01;;;;;;;0.30;0.30;;;20.00;80.50;;;;;;5033043;28;20041;-79
2023/05/12 10:15:26;;;;;;;0.30;0.30;;;20.00;80.30;;;;;;5043700;28;20052;-79
2023/05/12 10:17:52;;;;;;;1.58;0.40;;;20.00;80.20;;;;;;5044991;28;20045;-79
2023/05/12 10:20:17;;;;;;;0.30;0.30;;;20.00;80.10;;;;;;5033313;28;20084;-80
2023/05/12 10:22:43;;;;;;;0.20;0.20;;;20.00;80.10;;;;;;5041212;28;20045;-80
2023/05/12 10:25:08;;;;;;;0.60;0.30;;;20.10;80.20;;;;;;5056269;28;20041;-79
2023/05/12 10:27:34;;;;;;;0.38;0.10;;;20.10;80.30;;;;;;5049312;28;20037;-79
2023/05/12 10:30:00;;;;;;;0.40;0.40;;;20.10;80.20;;;;;;5047587;28;20044;-79
2023/05/12 10:32:26;;;;;;;0.35;0.28;;;20.10;80.30;;;;;;5048394;28;20024;-79
2023/05/12 10:34:52;;;;;;;2.55;0.30;;;20.10;80.30;;;;;;5050686;28;20421;-79
2023/05/12 10:37:17;;;;;;;0.45;0.40;;;20.10;80.20;;;;;;4660707;28;10000395;-80
2023/05/12 10:39:47;;;;;;;0.40;0.20;;;20.10;80.30;;;;;;5038453;28;20083;-80
2023/05/12 10:42:15;;;;;;;0.20;0.20;;;20.20;80.20;;;;;;5040816;28;20499;-79
2023/05/12 10:44:51;;;;;;;0.30;0.30;;;20.20;80.00;;;;;;5044648;28;20112;-80
2023/05/12 10:47:17;;;;;;;0.22;0.20;;;20.20;79.90;;;;;;5027486;28;20048;-83
2023/05/12 10:49:43;;;;;;;0.20;0.20;;;20.20;79.80;;;;;;5053816;28;20041;-80
2023/05/12 10:52:11;;;;;;;0.20;0.17;;;20.20;79.90;;;;;;5025413;28;20423;-79
2023/05/12 10:54:43;;;;;;;0.38;0.32;;;20.20;79.70;;;;;;5050802;28;20568;-79
2023/05/12 10:57:13;;;;;;;0.40;0.30;;;20.20;79.80;;;;;;5036688;28;20044;-80
2023/05/12 10:59:47;;;;;;;0.25;0.20;;;20.20;79.90;;;;;;5039366;28;20048;-81
2023/05/12 11:02:17;;;;;;;0.10;0.10;;;20.20;79.90;;;;;;5040788;28;20052;-81
2023/05/12 11:04:49;;;;;;;0.32;0.30;;;20.20;79.60;;;;;;5039120;28;20061;-80
2023/05/12 11:07:19;;;;;;;0.50;0.30;;;20.30;79.70;;;;;;5041621;28;20061;-81
2023/05/12 11:09:45;;;;;;;0.20;0.20;;;20.30;79.70;;;;;;5015902;28;20422;-85
2023/05/12 11:12:11;;;;;;;0.15;0.13;;;20.30;79.60;;;;;;5039719;28;20466;-84
2023/05/12 11:14:38;;;;;;;0.30;0.28;;;20.30;79.60;;;;;;5038928;28;20507;-84
2023/05/12 11:17:04;;;;;;;0.10;0.10;;;20.30;79.70;;;;;;5042439;28;20037;-83
2023/05/12 11:19:30;;;;;;;0.40;0.35;;;20.30;79.60;;;;;;5023263;28;20051;-84
2023/05/12 11:21:56;;;;;;;0.40;0.40;;;20.30;79.70;;;;;;5025561;28;20675;-83
2023/05/12 11:24:21;;;;;;;0.70;0.30;;;20.20;80.20;;;;;;5049502;28;20103;-83
2023/05/12 11:26:50;;;;;;;0.20;0.20;;;20.20;79.90;;;;;;5043000;28;20049;-83
2023/05/12 11:29:19;;;;;;;0.82;0.10;;;20.30;79.70;;;;;;5023227;28;20510;-83
2023/05/12 11:31:51;;;;;;;0.95;0.30;;;20.30;79.70;;;;;;5042096;28;20043;-85
2023/05/12 11:34:23;;;;;;;0.20;0.20;;;20.30;79.80;;;;;;5041547;28;20051;-85
2023/05/12 11:36:50;;;;;;;0.57;0.43;;;20.30;80.00;;;;;;5044732;28;20091;-86
2023/05/12 11:39:17;;;;;;;0.20;0.20;;;20.30;79.90;;;;;;5041662;28;20111;-85
2023/05/12 11:41:43;;;;;;;0.10;0.10;;;20.30;79.90;;;;;;5024761;28;20051;-82
2023/05/12 11:44:19;;;;;;;0.20;0.20;;;20.30;80.80;;;;;;5027496;28;20041;-82
2023/05/12 11:47:01;;;;;;;0.20;0.20;;;20.20;79.90;;;;;;5029453;28;20625;-83
2023/05/12 11:49:28;;;;;;;0.35;0.10;;;20.20;79.90;;;;;;5040748;28;20461;-82
2023/05/12 11:51:55;;;;;;;0.20;0.20;;;20.30;80.10;;;;;;5048483;28;20976;-83
2023/05/12 11:54:21;;;;;;;0.20;0.20;;;20.30;80.10;;;;;;5041129;28;20041;-82
2023/05/12 11:56:51;;;;;;;0.20;0.20;;;20.30;80.00;;;;;;5026241;28;20044;-82
2023/05/12 11:59:33;;;;;;;0.20;0.20;;;20.30;79.90;;;;;;5011925;28;22806;-82
2023/05/12 12:02:02;;;;;;;0.20;0.10;;;20.30;80.00;;;;;;5025660;28;20422;-82
2023/05/12 12:04:34;;;;;;;0.35;0.20;;;20.30;80.00;;;;;;5045932;28;20538;-83
2023/05/12 12:07:00;;;;;;;0.25;0.20;;;20.30;80.10;;;;;;5046966;28;20041;-82
2023/05/12 12:09:31;;;;;;;0.65;0.40;;;20.30;79.80;;;;;;5043198;28;20045;-82
2023/05/12 12:11:58;;;;;;;0.70;0.30;;;20.30;79.80;;;;;;5033460;28;20049;-83
2023/05/12 12:14:24;;;;;;;0.30;0.20;;;20.30;79.90;;;;;;5044139;28;20041;-82
2023/05/12 12:16:49;;;;;;;0.30;0.30;;;20.30;79.90;;;;;;5043385;28;20123;-83
2023/05/12 12:19:15;;;;;;;0.20;0.20;;;20.30;80.00;;;;;;5041115;28;20538;-83
2023/05/12 12:21:41;;;;;;;0.13;0.10;;;20.20;80.10;;;;;;5029238;28;20048;-82
2023/05/12 12:24:07;;;;;;;0.30;0.30;;;20.30;80.00;;;;;;5041844;28;20520;-82
2023/05/12 12:26:32;;;;;;;0.20;0.20;;;20.30;80.00;;;;;;5059409;28;20047;-83
2023/05/12 12:28:58;;;;;;;0.20;0.20;;;20.30;80.10;;;;;;5044130;28;20041;-83
2023/05/12 12:31:23;;;;;;;0.50;0.40;;;20.30;80.20;;;;;;5042203;28;20045;-83
2023/05/12 12:33:49;;;;;;;0.20;0.20;;;20.20;80.10;;;;;;5047758;28;20418;-82
2023/05/12 12:36:15;;;;;;;0.60;0.30;;;20.30;80.10;;;;;;5028450;28;20084;-82
2023/05/12 12:38:40;;;;;;;0.20;0.20;;;20.30;80.10;;;;;;5044020;28;20043;-83
2023/05/12 12:41:06;;;;;;;0.20;0.20;;;20.20;79.90;;;;;;5044873;28;20143;-82